sensor_id;sensor_type;location;lat;lon;timestamp;P1;durP1;ratioP1;P2;durP2;ratioP2
48941;SDS011;35340;52.378;4.648;2023-02-12T00:01:32;6.45;;;3.10;;
48941;SDS011;35340;52.378;4.648;2023-02-12T00:03:58;6.80;;;3.00;;
48941;SDS011;35340;52.378;4.648;2023-02-12T00:06:24;5.35;;;3.10;;
48941;SDS011;35340;52.378;4.648;2023-02-12T00:08:50;6.35;;;3.22;;
48941;SDS011;35340;52.378;4.648;2023-02-12T00:11:18;5.00;;;3.10;;
48941;SDS011;35340;52.378;4.648;2023-02-12T00:13:46;4.70;;;2.95;;
48941;SDS011;35340;52.378;4.648;2023-02-12T00:16:14;4.93;;;2.90;;
48941;SDS011;35340;52.378;4.648;2023-02-12T00:18:41;4.95;;;2.80;;
48941;SDS011;35340;52.378;4.648;2023-02-12T00:21:07;5.13;;;2.90;;
48941;SDS011;35340;52.378;4.648;2023-02-12T00:23:33;5.78;;;2.60;;
48941;SDS011;35340;52.378;4.648;2023-02-12T00:25:59;4.10;;;2.53;;
48941;SDS011;35340;52.378;4.648;2023-02-12T00:28:25;5.47;;;2.90;;
48941;SDS011;35340;52.378;4.648;2023-02-12T00:30:50;4.85;;;2.90;;
48941;SDS011;35340;52.378;4.648;2023-02-12T00:33:16;5.22;;;2.63;;
48941;SDS011;35340;52.378;4.648;2023-02-12T00:35:41;3.13;;;2.53;;
48941;SDS011;35340;52.378;4.648;2023-02-12T00:38:06;5.20;;;2.65;;
48941;SDS011;35340;52.378;4.648;2023-02-12T00:40:32;4.45;;;2.60;;
48941;SDS011;35340;52.378;4.648;2023-02-12T00:42:57;3.80;;;2.28;;
48941;SDS011;35340;52.378;4.648;2023-02-12T00:45:23;4.50;;;2.55;;
48941;SDS011;35340;52.378;4.648;2023-02-12T00:47:48;5.25;;;2.90;;
48941;SDS011;35340;52.378;4.648;2023-02-12T00:50:13;5.70;;;2.72;;
48941;SDS011;35340;52.378;4.648;2023-02-12T00:52:39;5.95;;;2.80;;
48941;SDS011;35340;52.378;4.648;2023-02-12T00:55:04;5.00;;;2.47;;
48941;SDS011;35340;52.378;4.648;2023-02-12T00:57:30;5.35;;;2.35;;
48941;SDS011;35340;52.378;4.648;2023-02-12T00:59:57;4.70;;;2.60;;
48941;SDS011;35340;52.378;4.648;2023-02-12T01:02:25;3.13;;;2.13;;
48941;SDS011;35340;52.378;4.648;2023-02-12T01:04:50;5.28;;;2.63;;
48941;SDS011;35340;52.378;4.648;2023-02-12T01:07:18;3.22;;;2.30;;
48941;SDS011;35340;52.378;4.648;2023-02-12T01:09:44;3.88;;;2.38;;
48941;SDS011;35340;52.378;4.648;2023-02-12T01:12:09;3.72;;;2.05;;
48941;SDS011;35340;52.378;4.648;2023-02-12T01:14:34;3.05;;;2.10;;
48941;SDS011;35340;52.378;4.648;2023-02-12T01:17:00;4.65;;;2.50;;
48941;SDS011;35340;52.378;4.648;2023-02-12T01:19:25;4.35;;;2.42;;
48941;SDS011;35340;52.378;4.648;2023-02-12T01:21:51;4.70;;;2.38;;
48941;SDS011;35340;52.378;4.648;2023-02-12T01:24:17;3.35;;;2.25;;
48941;SDS011;35340;52.378;4.648;2023-02-12T01:26:42;3.92;;;2.25;;
48941;SDS011;35340;52.378;4.648;2023-02-12T01:29:08;3.83;;;2.50;;
48941;SDS011;35340;52.378;4.648;2023-02-12T01:31:37;3.40;;;2.20;;
48941;SDS011;35340;52.378;4.648;2023-02-12T01:34:08;3.72;;;2.20;;
48941;SDS011;35340;52.378;4.648;2023-02-12T01:36:40;4.63;;;2.17;;
48941;SDS011;35340;52.378;4.648;2023-02-12T01:39:06;4.60;;;2.10;;
48941;SDS011;35340;52.378;4.648;2023-02-12T01:41:32;3.63;;;2.20;;
48941;SDS011;35340;52.378;4.648;2023-02-12T01:44:20;2.83;;;1.75;;
48941;SDS011;35340;52.378;4.648;2023-02-12T01:46:46;4.55;;;2.15;;
48941;SDS011;35340;52.378;4.648;2023-02-12T01:49:14;3.35;;;1.95;;
48941;SDS011;35340;52.378;4.648;2023-02-12T01:51:47;3.10;;;1.98;;
48941;SDS011;35340;52.378;4.648;2023-02-12T01:54:16;4.60;;;2.22;;
48941;SDS011;35340;52.378;4.648;2023-02-12T01:56:44;4.57;;;2.30;;
48941;SDS011;35340;52.378;4.648;2023-02-12T01:59:09;3.58;;;1.95;;
48941;SDS011;35340;52.378;4.648;2023-02-12T02:01:36;3.05;;;2.08;;
48941;SDS011;35340;52.378;4.648;2023-02-12T02:04:13;3.63;;;2.10;;
48941;SDS011;35340;52.378;4.648;2023-02-12T02:07:03;4.00;;;1.98;;
48941;SDS011;35340;52.378;4.648;2023-02-12T02:09:29;4.13;;;2.08;;
48941;SDS011;35340;52.378;4.648;2023-02-12T02:11:57;4.18;;;2.00;;
48941;SDS011;35340;52.378;4.648;2023-02-12T02:14:41;5.05;;;1.92;;
48941;SDS011;35340;52.378;4.648;2023-02-12T02:17:15;4.70;;;2.05;;
48941;SDS011;35340;52.378;4.648;2023-02-12T02:33:50;3.08;;;1.90;;
48941;SDS011;35340;52.378;4.648;2023-02-12T02:36:43;2.78;;;1.55;;
48941;SDS011;35340;52.378;4.648;2023-02-12T02:41:54;4.25;;;2.15;;
48941;SDS011;35340;52.378;4.648;2023-02-12T02:44:31;2.65;;;1.80;;
48941;SDS011;35340;52.378;4.648;2023-02-12T02:47:04;2.88;;;1.60;;
48941;SDS011;35340;52.378;4.648;2023-02-12T02:49:35;2.97;;;1.63;;
48941;SDS011;35340;52.378;4.648;2023-02-12T02:52:07;3.20;;;1.98;;
48941;SDS011;35340;52.378;4.648;2023-02-12T02:54:40;3.05;;;1.65;;
48941;SDS011;35340;52.378;4.648;2023-02-12T02:59:54;4.15;;;1.73;;
48941;SDS011;35340;52.378;4.648;2023-02-12T03:02:28;2.78;;;1.80;;
48941;SDS011;35340;52.378;4.648;2023-02-12T03:04:58;3.22;;;1.98;;
48941;SDS011;35340;52.378;4.648;2023-02-12T03:07:28;3.63;;;1.90;;
48941;SDS011;35340;52.378;4.648;2023-02-12T03:10:00;3.13;;;1.98;;
48941;SDS011;35340;52.378;4.648;2023-02-12T03:12:38;2.53;;;1.70;;
48941;SDS011;35340;52.378;4.648;2023-02-12T03:15:13;2.65;;;1.58;;
48941;SDS011;35340;52.378;4.648;2023-02-12T03:17:50;3.45;;;1.80;;
48941;SDS011;35340;52.378;4.648;2023-02-12T03:20:58;2.85;;;1.40;;
48941;SDS011;35340;52.378;4.648;2023-02-12T03:23:16;3.10;;;1.75;;
48941;SDS011;35340;52.378;4.648;2023-02-12T03:25:54;2.25;;;1.50;;
48941;SDS011;35340;52.378;4.648;2023-02-12T03:28:28;3.70;;;1.70;;
48941;SDS011;35340;52.378;4.648;2023-02-12T03:36:51;3.10;;;1.60;;
48941;SDS011;35340;52.378;4.648;2023-02-12T03:39:37;2.10;;;1.30;;
48941;SDS011;35340;52.378;4.648;2023-02-12T03:42:18;2.10;;;1.40;;
48941;SDS011;35340;52.378;4.648;2023-02-12T03:52:34;2.35;;;1.40;;
48941;SDS011;35340;52.378;4.648;2023-02-12T03:55:01;2.50;;;1.50;;
48941;SDS011;35340;52.378;4.648;2023-02-12T03:57:29;2.17;;;1.45;;
48941;SDS011;35340;52.378;4.648;2023-02-12T04:00:01;2.63;;;1.48;;
48941;SDS011;35340;52.378;4.648;2023-02-12T04:02:32;2.08;;;1.20;;
48941;SDS011;35340;52.378;4.648;2023-02-12T04:05:02;2.45;;;1.50;;
48941;SDS011;35340;52.378;4.648;2023-02-12T04:07:30;3.80;;;1.40;;
48941;SDS011;35340;52.378;4.648;2023-02-12T04:09:56;2.78;;;1.52;;
48941;SDS011;35340;52.378;4.648;2023-02-12T04:23:19;3.03;;;1.60;;
48941;SDS011;35340;52.378;4.648;2023-02-12T04:31:30;2.30;;;1.27;;
48941;SDS011;35340;52.378;4.648;2023-02-12T04:34:16;1.58;;;1.10;;
48941;SDS011;35340;52.378;4.648;2023-02-12T04:40:08;2.20;;;1.48;;
48941;SDS011;35340;52.378;4.648;2023-02-12T04:42:44;2.25;;;1.17;;
48941;SDS011;35340;52.378;4.648;2023-02-12T04:45:13;3.03;;;1.52;;
48941;SDS011;35340;52.378;4.648;2023-02-12T04:47:43;1.70;;;1.17;;
48941;SDS011;35340;52.378;4.648;2023-02-12T04:50:09;2.25;;;1.25;;
48941;SDS011;35340;52.378;4.648;2023-02-12T04:52:35;2.20;;;1.10;;
48941;SDS011;35340;52.378;4.648;2023-02-12T04:55:00;1.95;;;1.27;;
48941;SDS011;35340;52.378;4.648;2023-02-12T04:57:25;2.67;;;1.27;;
48941;SDS011;35340;52.378;4.648;2023-02-12T04:59:51;1.73;;;1.10;;
48941;SDS011;35340;52.378;4.648;2023-02-12T05:02:16;2.40;;;1.30;;
48941;SDS011;35340;52.378;4.648;2023-02-12T05:04:41;1.75;;;1.27;;
48941;SDS011;35340;52.378;4.648;2023-02-12T05:07:07;1.70;;;1.00;;
48941;SDS011;35340;52.378;4.648;2023-02-12T05:09:32;2.38;;;1.27;;
48941;SDS011;35340;52.378;4.648;2023-02-12T05:11:58;2.80;;;1.17;;
48941;SDS011;35340;52.378;4.648;2023-02-12T05:14:23;1.65;;;1.10;;
48941;SDS011;35340;52.378;4.648;2023-02-12T05:16:49;1.98;;;0.90;;
48941;SDS011;35340;52.378;4.648;2023-02-12T05:19:15;1.40;;;0.88;;
48941;SDS011;35340;52.378;4.648;2023-02-12T05:21:40;2.70;;;1.00;;
48941;SDS011;35340;52.378;4.648;2023-02-12T05:24:05;2.10;;;1.10;;
48941;SDS011;35340;52.378;4.648;2023-02-12T05:26:31;1.67;;;1.10;;
48941;SDS011;35340;52.378;4.648;2023-02-12T05:28:56;2.13;;;1.05;;
48941;SDS011;35340;52.378;4.648;2023-02-12T05:31:22;1.60;;;1.00;;
48941;SDS011;35340;52.378;4.648;2023-02-12T05:33:47;2.25;;;0.90;;
48941;SDS011;35340;52.378;4.648;2023-02-12T05:36:14;1.35;;;0.80;;
48941;SDS011;35340;52.378;4.648;2023-02-12T05:38:41;2.28;;;1.02;;
48941;SDS011;35340;52.378;4.648;2023-02-12T05:41:08;1.65;;;0.75;;
48941;SDS011;35340;52.378;4.648;2023-02-12T05:43:35;1.27;;;0.90;;
48941;SDS011;35340;52.378;4.648;2023-02-12T05:46:02;1.73;;;1.00;;
48941;SDS011;35340;52.378;4.648;2023-02-12T05:48:29;1.02;;;0.82;;
48941;SDS011;35340;52.378;4.648;2023-02-12T05:51:02;1.88;;;0.90;;
48941;SDS011;35340;52.378;4.648;2023-02-12T05:53:32;1.48;;;0.80;;
48941;SDS011;35340;52.378;4.648;2023-02-12T05:56:05;1.48;;;0.77;;
48941;SDS011;35340;52.378;4.648;2023-02-12T05:58:35;1.25;;;0.77;;
48941;SDS011;35340;52.378;4.648;2023-02-12T06:01:01;1.10;;;0.70;;
48941;SDS011;35340;52.378;4.648;2023-02-12T06:03:26;1.35;;;0.80;;
48941;SDS011;35340;52.378;4.648;2023-02-12T06:05:52;1.13;;;0.73;;
48941;SDS011;35340;52.378;4.648;2023-02-12T06:08:17;1.08;;;0.70;;
48941;SDS011;35340;52.378;4.648;2023-02-12T06:10:43;2.17;;;0.70;;
48941;SDS011;35340;52.378;4.648;2023-02-12T06:13:08;1.17;;;0.70;;
48941;SDS011;35340;52.378;4.648;2023-02-12T06:15:37;1.15;;;0.77;;
48941;SDS011;35340;52.378;4.648;2023-02-12T06:18:02;0.75;;;0.60;;
48941;SDS011;35340;52.378;4.648;2023-02-12T06:20:28;1.17;;;0.73;;
48941;SDS011;35340;52.378;4.648;2023-02-12T06:22:53;1.33;;;0.63;;
48941;SDS011;35340;52.378;4.648;2023-02-12T06:25:19;1.02;;;0.70;;
48941;SDS011;35340;52.378;4.648;2023-02-12T06:27:44;1.42;;;0.77;;
48941;SDS011;35340;52.378;4.648;2023-02-12T06:30:10;1.00;;;0.70;;
48941;SDS011;35340;52.378;4.648;2023-02-12T06:32:36;0.82;;;0.60;;
48941;SDS011;35340;52.378;4.648;2023-02-12T06:35:01;1.30;;;0.80;;
48941;SDS011;35340;52.378;4.648;2023-02-12T06:37:26;1.15;;;0.70;;
48941;SDS011;35340;52.378;4.648;2023-02-12T06:39:52;0.80;;;0.60;;
48941;SDS011;35340;52.378;4.648;2023-02-12T06:42:17;1.08;;;0.70;;
48941;SDS011;35340;52.378;4.648;2023-02-12T06:44:42;0.68;;;0.50;;
48941;SDS011;35340;52.378;4.648;2023-02-12T06:47:09;1.17;;;0.60;;
48941;SDS011;35340;52.378;4.648;2023-02-12T06:49:34;1.20;;;0.68;;
48941;SDS011;35340;52.378;4.648;2023-02-12T06:52:00;1.05;;;0.50;;
48941;SDS011;35340;52.378;4.648;2023-02-12T06:54:25;1.15;;;0.73;;
48941;SDS011;35340;52.378;4.648;2023-02-12T06:56:50;1.88;;;0.60;;
48941;SDS011;35340;52.378;4.648;2023-02-12T06:59:16;0.68;;;0.50;;
48941;SDS011;35340;52.378;4.648;2023-02-12T07:01:42;1.50;;;0.73;;
48941;SDS011;35340;52.378;4.648;2023-02-12T07:04:07;1.17;;;0.57;;
48941;SDS011;35340;52.378;4.648;2023-02-12T07:06:34;1.13;;;0.73;;
48941;SDS011;35340;52.378;4.648;2023-02-12T07:09:00;0.95;;;0.50;;
48941;SDS011;35340;52.378;4.648;2023-02-12T07:11:28;0.88;;;0.68;;
48941;SDS011;35340;52.378;4.648;2023-02-12T07:13:56;1.08;;;0.60;;
48941;SDS011;35340;52.378;4.648;2023-02-12T07:16:21;0.90;;;0.60;;
48941;SDS011;35340;52.378;4.648;2023-02-12T07:18:48;1.80;;;0.80;;
48941;SDS011;35340;52.378;4.648;2023-02-12T07:21:13;0.93;;;0.45;;
48941;SDS011;35340;52.378;4.648;2023-02-12T07:23:40;2.08;;;0.52;;
48941;SDS011;35340;52.378;4.648;2023-02-12T07:26:08;0.52;;;0.50;;
48941;SDS011;35340;52.378;4.648;2023-02-12T07:28:36;2.00;;;0.60;;
48941;SDS011;35340;52.378;4.648;2023-02-12T07:31:08;2.05;;;0.60;;
48941;SDS011;35340;52.378;4.648;2023-02-12T07:33:36;0.50;;;0.40;;
48941;SDS011;35340;52.378;4.648;2023-02-12T07:36:03;0.90;;;0.60;;
48941;SDS011;35340;52.378;4.648;2023-02-12T07:38:30;3.40;;;0.60;;
48941;SDS011;35340;52.378;4.648;2023-02-12T07:41:04;1.67;;;0.60;;
48941;SDS011;35340;52.378;4.648;2023-02-12T07:43:30;1.08;;;0.60;;
48941;SDS011;35340;52.378;4.648;2023-02-12T07:45:55;1.33;;;0.50;;
48941;SDS011;35340;52.378;4.648;2023-02-12T07:48:30;2.22;;;0.60;;
48941;SDS011;35340;52.378;4.648;2023-02-12T07:50:55;2.03;;;0.70;;
48941;SDS011;35340;52.378;4.648;2023-02-12T07:53:21;7.53;;;0.90;;
48941;SDS011;35340;52.378;4.648;2023-02-12T07:55:46;3.22;;;1.08;;
48941;SDS011;35340;52.378;4.648;2023-02-12T07:58:11;4.82;;;0.90;;
48941;SDS011;35340;52.378;4.648;2023-02-12T08:00:37;3.25;;;0.80;;
48941;SDS011;35340;52.378;4.648;2023-02-12T08:03:02;7.25;;;0.82;;
48941;SDS011;35340;52.378;4.648;2023-02-12T08:05:27;2.60;;;0.85;;
48941;SDS011;35340;52.378;4.648;2023-02-12T08:07:53;8.00;;;0.80;;
48941;SDS011;35340;52.378;4.648;2023-02-12T08:10:19;1.65;;;0.70;;
48941;SDS011;35340;52.378;4.648;2023-02-12T08:12:46;3.25;;;0.80;;
48941;SDS011;35340;52.378;4.648;2023-02-12T08:15:11;2.47;;;0.93;;
48941;SDS011;35340;52.378;4.648;2023-02-12T08:17:37;2.63;;;0.80;;
48941;SDS011;35340;52.378;4.648;2023-02-12T08:20:02;2.13;;;0.80;;
48941;SDS011;35340;52.378;4.648;2023-02-12T08:22:27;2.22;;;0.68;;
48941;SDS011;35340;52.378;4.648;2023-02-12T08:24:53;2.53;;;0.80;;
48941;SDS011;35340;52.378;4.648;2023-02-12T08:27:18;3.85;;;1.00;;
48941;SDS011;35340;52.378;4.648;2023-02-12T08:29:44;1.77;;;0.70;;
48941;SDS011;35340;52.378;4.648;2023-02-12T08:32:09;4.93;;;0.73;;
48941;SDS011;35340;52.378;4.648;2023-02-12T08:34:38;0.93;;;0.52;;
48941;SDS011;35340;52.378;4.648;2023-02-12T08:37:04;4.35;;;0.70;;
48941;SDS011;35340;52.378;4.648;2023-02-12T08:39:30;1.02;;;0.50;;
48941;SDS011;35340;52.378;4.648;2023-02-12T08:41:56;3.95;;;0.60;;
48941;SDS011;35340;52.378;4.648;2023-02-12T08:44:23;2.00;;;0.60;;
48941;SDS011;35340;52.378;4.648;2023-02-12T08:46:49;1.33;;;0.60;;
48941;SDS011;35340;52.378;4.648;2023-02-12T08:49:20;3.30;;;0.60;;
48941;SDS011;35340;52.378;4.648;2023-02-12T08:51:49;1.02;;;0.60;;
48941;SDS011;35340;52.378;4.648;2023-02-12T08:54:17;1.45;;;0.70;;
48941;SDS011;35340;52.378;4.648;2023-02-12T08:56:44;2.25;;;0.70;;
48941;SDS011;35340;52.378;4.648;2023-02-12T08:59:10;1.08;;;0.60;;
48941;SDS011;35340;52.378;4.648;2023-02-12T09:01:37;1.42;;;0.70;;
48941;SDS011;35340;52.378;4.648;2023-02-12T09:04:05;1.15;;;0.65;;
48941;SDS011;35340;52.378;4.648;2023-02-12T09:06:32;1.17;;;0.60;;
48941;SDS011;35340;52.378;4.648;2023-02-12T09:08:59;2.28;;;0.55;;
48941;SDS011;35340;52.378;4.648;2023-02-12T09:11:26;8.30;;;0.93;;
48941;SDS011;35340;52.378;4.648;2023-02-12T09:14:00;2.00;;;0.80;;
48941;SDS011;35340;52.378;4.648;2023-02-12T09:16:27;2.58;;;1.00;;
48941;SDS011;35340;52.378;4.648;2023-02-12T09:18:53;1.90;;;0.80;;
48941;SDS011;35340;52.378;4.648;2023-02-12T09:21:20;2.35;;;0.80;;
48941;SDS011;35340;52.378;4.648;2023-02-12T09:23:46;4.65;;;0.80;;
48941;SDS011;35340;52.378;4.648;2023-02-12T09:26:13;5.70;;;1.00;;
48941;SDS011;35340;52.378;4.648;2023-02-12T09:28:41;4.72;;;0.95;;
48941;SDS011;35340;52.378;4.648;2023-02-12T09:31:07;3.83;;;0.85;;
48941;SDS011;35340;52.378;4.648;2023-02-12T09:33:34;3.75;;;1.00;;
48941;SDS011;35340;52.378;4.648;2023-02-12T09:36:00;4.70;;;1.40;;
48941;SDS011;35340;52.378;4.648;2023-02-12T09:38:27;7.93;;;1.20;;
48941;SDS011;35340;52.378;4.648;2023-02-12T09:52:10;3.72;;;1.15;;
48941;SDS011;35340;52.378;4.648;2023-02-12T09:54:41;2.72;;;0.70;;
48941;SDS011;35340;52.378;4.648;2023-02-12T09:57:13;5.15;;;0.95;;
48941;SDS011;35340;52.378;4.648;2023-02-12T09:59:48;3.17;;;1.10;;
48941;SDS011;35340;52.378;4.648;2023-02-12T10:02:19;4.63;;;1.00;;
48941;SDS011;35340;52.378;4.648;2023-02-12T10:04:46;3.50;;;0.85;;
48941;SDS011;35340;52.378;4.648;2023-02-12T10:07:19;1.60;;;0.70;;
48941;SDS011;35340;52.378;4.648;2023-02-12T10:09:51;2.67;;;0.70;;
48941;SDS011;35340;52.378;4.648;2023-02-12T10:30:55;2.58;;;1.00;;
48941;SDS011;35340;52.378;4.648;2023-02-12T10:35:57;1.80;;;0.77;;
48941;SDS011;35340;52.378;4.648;2023-02-12T10:38:30;3.13;;;1.00;;
48941;SDS011;35340;52.378;4.648;2023-02-12T10:40:59;2.65;;;0.75;;
48941;SDS011;35340;52.378;4.648;2023-02-12T10:43:27;2.85;;;0.90;;
48941;SDS011;35340;52.378;4.648;2023-02-12T10:45:53;3.45;;;0.82;;
48941;SDS011;35340;52.378;4.648;2023-02-12T10:48:20;3.47;;;0.90;;
48941;SDS011;35340;52.378;4.648;2023-02-12T10:50:49;2.15;;;1.00;;
48941;SDS011;35340;52.378;4.648;2023-02-12T10:58:41;1.50;;;0.65;;
48941;SDS011;35340;52.378;4.648;2023-02-12T11:01:25;5.18;;;2.13;;
48941;SDS011;35340;52.378;4.648;2023-02-12T11:04:00;6.47;;;2.23;;
48941;SDS011;35340;52.378;4.648;2023-02-12T11:09:26;6.53;;;1.60;;
48941;SDS011;35340;52.378;4.648;2023-02-12T11:11:54;4.65;;;1.20;;
48941;SDS011;35340;52.378;4.648;2023-02-12T11:14:20;2.90;;;1.10;;
48941;SDS011;35340;52.378;4.648;2023-02-12T11:16:50;1.95;;;1.10;;
48941;SDS011;35340;52.378;4.648;2023-02-12T11:19:22;2.28;;;0.80;;
48941;SDS011;35340;52.378;4.648;2023-02-12T11:21:49;2.55;;;1.10;;
48941;SDS011;35340;52.378;4.648;2023-02-12T11:24:48;3.95;;;1.13;;
48941;SDS011;35340;52.378;4.648;2023-02-12T11:27:11;2.20;;;1.05;;
48941;SDS011;35340;52.378;4.648;2023-02-12T11:29:43;1.50;;;0.88;;
48941;SDS011;35340;52.378;4.648;2023-02-12T11:32:19;4.18;;;1.23;;
48941;SDS011;35340;52.378;4.648;2023-02-12T11:35:03;1.75;;;0.90;;
48941;SDS011;35340;52.378;4.648;2023-02-12T11:37:35;2.08;;;1.05;;
48941;SDS011;35340;52.378;4.648;2023-02-12T11:40:04;1.98;;;1.00;;
48941;SDS011;35340;52.378;4.648;2023-02-12T11:42:32;1.65;;;1.08;;
48941;SDS011;35340;52.378;4.648;2023-02-12T11:45:01;2.33;;;1.30;;
48941;SDS011;35340;52.378;4.648;2023-02-12T11:47:32;1.30;;;0.90;;
48941;SDS011;35340;52.378;4.648;2023-02-12T11:52:33;1.60;;;0.90;;
48941;SDS011;35340;52.378;4.648;2023-02-12T11:55:02;1.42;;;1.00;;
48941;SDS011;35340;52.378;4.648;2023-02-12T12:00:24;1.85;;;1.10;;
48941;SDS011;35340;52.378;4.648;2023-02-12T12:03:17;1.45;;;1.00;;
48941;SDS011;35340;52.378;4.648;2023-02-12T12:05:49;2.35;;;0.82;;
48941;SDS011;35340;52.378;4.648;2023-02-12T12:08:28;1.52;;;1.20;;
48941;SDS011;35340;52.378;4.648;2023-02-12T12:11:05;1.88;;;1.20;;
48941;SDS011;35340;52.378;4.648;2023-02-12T12:13:42;2.78;;;1.05;;
48941;SDS011;35340;52.378;4.648;2023-02-12T12:16:18;1.70;;;1.10;;
48941;SDS011;35340;52.378;4.648;2023-02-12T12:19:10;2.40;;;1.38;;
48941;SDS011;35340;52.378;4.648;2023-02-12T12:22:35;2.75;;;1.38;;
48941;SDS011;35340;52.378;4.648;2023-02-12T12:30:52;1.95;;;1.23;;
48941;SDS011;35340;52.378;4.648;2023-02-12T12:38:49;2.03;;;1.33;;
48941;SDS011;35340;52.378;4.648;2023-02-12T12:41:40;3.72;;;1.40;;
48941;SDS011;35340;52.378;4.648;2023-02-12T12:44:26;2.80;;;1.50;;
48941;SDS011;35340;52.378;4.648;2023-02-12T12:58:04;1.58;;;1.20;;
48941;SDS011;35340;52.378;4.648;2023-02-12T13:03:37;2.10;;;1.50;;
48941;SDS011;35340;52.378;4.648;2023-02-12T13:06:07;2.35;;;1.35;;
48941;SDS011;35340;52.378;4.648;2023-02-12T13:23:20;2.33;;;1.60;;
48941;SDS011;35340;52.378;4.648;2023-02-12T13:26:10;2.88;;;1.83;;
48941;SDS011;35340;52.378;4.648;2023-02-12T13:28:45;5.38;;;1.70;;
48941;SDS011;35340;52.378;4.648;2023-02-12T13:31:42;3.50;;;1.80;;
48941;SDS011;35340;52.378;4.648;2023-02-12T13:34:13;4.70;;;1.70;;
48941;SDS011;35340;52.378;4.648;2023-02-12T13:36:41;3.95;;;1.60;;
48941;SDS011;35340;52.378;4.648;2023-02-12T13:39:15;5.30;;;1.92;;
48941;SDS011;35340;52.378;4.648;2023-02-12T13:41:56;5.70;;;1.90;;
48941;SDS011;35340;52.378;4.648;2023-02-12T13:47:28;2.70;;;1.67;;
48941;SDS011;35340;52.378;4.648;2023-02-12T13:52:56;2.55;;;1.90;;
48941;SDS011;35340;52.378;4.648;2023-02-12T14:01:05;4.10;;;2.20;;
48941;SDS011;35340;52.378;4.648;2023-02-12T14:07:10;3.90;;;2.08;;
48941;SDS011;35340;52.378;4.648;2023-02-12T14:09:39;3.70;;;2.70;;
48941;SDS011;35340;52.378;4.648;2023-02-12T14:12:14;2.92;;;2.33;;
48941;SDS011;35340;52.378;4.648;2023-02-12T14:19:55;3.78;;;2.80;;
48941;SDS011;35340;52.378;4.648;2023-02-12T14:24:56;3.70;;;2.72;;
48941;SDS011;35340;52.378;4.648;2023-02-12T14:38:00;3.70;;;3.05;;
48941;SDS011;35340;52.378;4.648;2023-02-12T14:40:49;3.53;;;2.72;;
48941;SDS011;35340;52.378;4.648;2023-02-12T14:43:29;4.00;;;3.40;;
48941;SDS011;35340;52.378;4.648;2023-02-12T14:51:38;3.97;;;2.83;;
48941;SDS011;35340;52.378;4.648;2023-02-12T14:54:29;3.47;;;3.10;;
48941;SDS011;35340;52.378;4.648;2023-02-12T14:57:00;4.03;;;3.17;;
48941;SDS011;35340;52.378;4.648;2023-02-12T14:59:48;3.70;;;3.00;;
48941;SDS011;35340;52.378;4.648;2023-02-12T15:02:21;3.95;;;3.20;;
48941;SDS011;35340;52.378;4.648;2023-02-12T15:05:00;4.72;;;3.40;;
48941;SDS011;35340;52.378;4.648;2023-02-12T15:07:44;4.43;;;3.63;;
48941;SDS011;35340;52.378;4.648;2023-02-12T15:10:14;4.30;;;3.67;;
48941;SDS011;35340;52.378;4.648;2023-02-12T15:12:46;4.15;;;3.50;;
48941;SDS011;35340;52.378;4.648;2023-02-12T15:18:23;5.57;;;3.65;;
48941;SDS011;35340;52.378;4.648;2023-02-12T15:21:15;5.10;;;3.50;;
48941;SDS011;35340;52.378;4.648;2023-02-12T15:23:46;4.70;;;4.07;;
48941;SDS011;35340;52.378;4.648;2023-02-12T15:26:13;6.95;;;4.88;;
48941;SDS011;35340;52.378;4.648;2023-02-12T15:28:41;7.47;;;4.57;;
48941;SDS011;35340;52.378;4.648;2023-02-12T15:31:13;9.43;;;4.95;;
48941;SDS011;35340;52.378;4.648;2023-02-12T15:33:43;5.72;;;4.28;;
48941;SDS011;35340;52.378;4.648;2023-02-12T15:36:14;8.80;;;4.40;;
48941;SDS011;35340;52.378;4.648;2023-02-12T15:38:42;4.65;;;3.58;;
48941;SDS011;35340;52.378;4.648;2023-02-12T15:41:21;6.18;;;4.50;;
48941;SDS011;35340;52.378;4.648;2023-02-12T15:44:18;5.53;;;4.20;;
48941;SDS011;35340;52.378;4.648;2023-02-12T15:46:54;7.45;;;4.35;;
48941;SDS011;35340;52.378;4.648;2023-02-12T15:49:41;5.03;;;4.20;;
48941;SDS011;35340;52.378;4.648;2023-02-12T15:52:53;6.10;;;4.10;;
48941;SDS011;35340;52.378;4.648;2023-02-12T15:54:59;5.10;;;3.95;;
48941;SDS011;35340;52.378;4.648;2023-02-12T15:57:26;4.85;;;3.90;;
48941;SDS011;35340;52.378;4.648;2023-02-12T15:59:52;5.82;;;4.25;;
48941;SDS011;35340;52.378;4.648;2023-02-12T16:02:28;4.97;;;3.92;;
48941;SDS011;35340;52.378;4.648;2023-02-12T16:04:56;5.80;;;4.35;;
48941;SDS011;35340;52.378;4.648;2023-02-12T16:07:23;7.07;;;4.10;;
48941;SDS011;35340;52.378;4.648;2023-02-12T16:09:50;5.15;;;4.35;;
48941;SDS011;35340;52.378;4.648;2023-02-12T16:12:18;4.55;;;4.05;;
48941;SDS011;35340;52.378;4.648;2023-02-12T16:14:53;5.70;;;4.32;;
48941;SDS011;35340;52.378;4.648;2023-02-12T16:17:21;7.13;;;4.15;;
48941;SDS011;35340;52.378;4.648;2023-02-12T16:20:03;5.13;;;4.00;;
48941;SDS011;35340;52.378;4.648;2023-02-12T16:22:49;9.98;;;4.45;;
48941;SDS011;35340;52.378;4.648;2023-02-12T16:27:47;4.50;;;4.10;;
48941;SDS011;35340;52.378;4.648;2023-02-12T16:30:32;5.03;;;3.80;;
48941;SDS011;35340;52.378;4.648;2023-02-12T16:36:00;4.85;;;4.05;;
48941;SDS011;35340;52.378;4.648;2023-02-12T16:38:43;4.60;;;4.10;;
48941;SDS011;35340;52.378;4.648;2023-02-12T16:41:21;4.93;;;4.20;;
48941;SDS011;35340;52.378;4.648;2023-02-12T16:43:49;4.85;;;4.38;;
48941;SDS011;35340;52.378;4.648;2023-02-12T16:49:16;4.60;;;4.20;;
48941;SDS011;35340;52.378;4.648;2023-02-12T16:51:43;4.90;;;4.40;;
48941;SDS011;35340;52.378;4.648;2023-02-12T16:54:23;4.72;;;4.32;;
48941;SDS011;35340;52.378;4.648;2023-02-12T16:56:52;4.30;;;3.72;;
48941;SDS011;35340;52.378;4.648;2023-02-12T16:59:17;5.78;;;4.70;;
48941;SDS011;35340;52.378;4.648;2023-02-12T17:02:05;6.03;;;4.70;;
48941;SDS011;35340;52.378;4.648;2023-02-12T17:04:35;5.93;;;4.88;;
48941;SDS011;35340;52.378;4.648;2023-02-12T17:07:01;5.00;;;4.40;;
48941;SDS011;35340;52.378;4.648;2023-02-12T17:09:34;4.57;;;4.07;;
48941;SDS011;35340;52.378;4.648;2023-02-12T17:11:59;5.85;;;4.85;;
48941;SDS011;35340;52.378;4.648;2023-02-12T17:14:24;5.63;;;4.95;;
48941;SDS011;35340;52.378;4.648;2023-02-12T17:16:50;6.32;;;4.60;;
48941;SDS011;35340;52.378;4.648;2023-02-12T17:19:15;5.45;;;4.38;;
48941;SDS011;35340;52.378;4.648;2023-02-12T17:21:42;5.57;;;4.97;;
48941;SDS011;35340;52.378;4.648;2023-02-12T17:24:15;6.43;;;4.97;;
48941;SDS011;35340;52.378;4.648;2023-02-12T17:26:45;5.65;;;4.50;;
48941;SDS011;35340;52.378;4.648;2023-02-12T17:29:28;5.93;;;4.80;;
48941;SDS011;35340;52.378;4.648;2023-02-12T17:32:11;6.55;;;4.88;;
48941;SDS011;35340;52.378;4.648;2023-02-12T17:34:40;5.60;;;5.10;;
48941;SDS011;35340;52.378;4.648;2023-02-12T17:37:05;5.32;;;4.60;;
48941;SDS011;35340;52.378;4.648;2023-02-12T17:39:31;7.28;;;4.90;;
48941;SDS011;35340;52.378;4.648;2023-02-12T17:41:56;5.63;;;4.85;;
48941;SDS011;35340;52.378;4.648;2023-02-12T17:44:24;6.00;;;5.20;;
48941;SDS011;35340;52.378;4.648;2023-02-12T17:46:50;5.53;;;5.03;;
48941;SDS011;35340;52.378;4.648;2023-02-12T17:49:15;7.88;;;5.40;;
48941;SDS011;35340;52.378;4.648;2023-02-12T17:51:41;5.85;;;5.25;;
48941;SDS011;35340;52.378;4.648;2023-02-12T17:54:06;5.88;;;5.05;;
48941;SDS011;35340;52.378;4.648;2023-02-12T17:56:32;5.93;;;5.32;;
48941;SDS011;35340;52.378;4.648;2023-02-12T17:58:58;6.22;;;5.45;;
48941;SDS011;35340;52.378;4.648;2023-02-12T18:01:23;5.75;;;5.15;;
48941;SDS011;35340;52.378;4.648;2023-02-12T18:03:49;7.50;;;5.53;;
48941;SDS011;35340;52.378;4.648;2023-02-12T18:06:20;6.15;;;5.55;;
48941;SDS011;35340;52.378;4.648;2023-02-12T18:08:50;6.45;;;5.85;;
48941;SDS011;35340;52.378;4.648;2023-02-12T18:11:16;6.88;;;5.85;;
48941;SDS011;35340;52.378;4.648;2023-02-12T18:13:43;6.43;;;5.53;;
48941;SDS011;35340;52.378;4.648;2023-02-12T18:16:09;6.13;;;5.53;;